createdAt,value
2022-10-30T00:00:42.997Z,958.79
2022-10-30T00:01:43.095Z,958.82
2022-10-30T00:02:43.020Z,958.79
2022-10-30T00:03:43.095Z,958.79
2022-10-30T00:04:42.959Z,958.77
2022-10-30T00:05:42.957Z,958.74
2022-10-30T00:06:42.950Z,958.75
2022-10-30T00:07:42.969Z,958.74
2022-10-30T00:08:42.972Z,958.71
2022-10-30T00:09:42.934Z,958.75
2022-10-30T00:10:42.918Z,958.71
2022-10-30T00:11:42.910Z,958.73
2022-10-30T00:12:42.913Z,958.72
2022-10-30T00:13:42.885Z,958.78
2022-10-30T00:14:42.879Z,958.76
2022-10-30T00:15:42.884Z,958.75
2022-10-30T00:16:42.858Z,958.74
2022-10-30T00:17:42.851Z,958.74
2022-10-30T00:18:42.842Z,958.71
2022-10-30T00:19:42.836Z,958.72
2022-10-30T00:20:42.827Z,958.74
2022-10-30T00:21:42.818Z,958.71
2022-10-30T00:22:42.808Z,958.72
2022-10-30T00:23:42.800Z,958.72
2022-10-30T00:24:42.816Z,958.7
2022-10-30T00:25:42.783Z,958.64
2022-10-30T00:26:42.775Z,958.63
2022-10-30T00:27:42.771Z,958.64
2022-10-30T00:28:42.812Z,958.63
2022-10-30T00:29:42.750Z,958.62
2022-10-30T00:30:42.745Z,958.65
2022-10-30T00:31:42.732Z,958.65
2022-10-30T00:32:42.726Z,958.63
2022-10-30T00:33:42.718Z,958.63
2022-10-30T00:34:42.708Z,958.62
2022-10-30T00:35:42.784Z,958.64
2022-10-30T00:36:42.693Z,958.66
2022-10-30T00:37:42.681Z,958.69
2022-10-30T00:38:42.678Z,958.66
2022-10-30T00:39:42.668Z,958.6
2022-10-30T00:40:42.683Z,958.62
2022-10-30T00:41:42.650Z,958.62
2022-10-30T00:42:42.645Z,958.63
2022-10-30T00:43:42.634Z,958.66
2022-10-30T00:44:42.625Z,958.62
2022-10-30T00:45:42.616Z,958.62
2022-10-30T00:46:42.607Z,958.61
2022-10-30T00:47:42.599Z,958.61
2022-10-30T00:48:42.709Z,958.61
2022-10-30T00:49:42.584Z,958.58
2022-10-30T00:50:42.574Z,958.56
2022-10-30T00:51:42.566Z,958.56
2022-10-30T00:52:42.559Z,958.57
2022-10-30T00:53:42.554Z,958.55
2022-10-30T00:54:43.391Z,958.55
2022-10-30T00:55:43.379Z,958.56
2022-10-30T00:56:43.395Z,958.53
2022-10-30T00:57:43.366Z,958.57
2022-10-30T00:58:43.354Z,958.57
2022-10-30T00:59:43.350Z,958.5
2022-10-30T01:00:43.337Z,958.5
2022-10-30T01:01:43.480Z,958.45
2022-10-30T01:02:43.419Z,958.45
2022-10-30T01:03:43.312Z,958.37
2022-10-30T01:04:43.302Z,958.35
2022-10-30T01:05:43.299Z,958.3
2022-10-30T01:06:43.287Z,958.35
2022-10-30T01:07:43.288Z,958.29
2022-10-30T01:08:43.355Z,958.28
2022-10-30T01:09:43.263Z,958.32
2022-10-30T01:10:43.255Z,958.3
2022-10-30T01:11:43.246Z,958.31
2022-10-30T01:12:43.265Z,958.31
2022-10-30T01:13:43.230Z,958.31
2022-10-30T01:14:43.218Z,958.31
2022-10-30T01:15:43.210Z,958.31
2022-10-30T01:16:43.203Z,958.31
2022-10-30T01:17:43.195Z,958.35
2022-10-30T01:18:43.187Z,958.32
2022-10-30T01:19:43.178Z,958.33
2022-10-30T01:20:43.176Z,958.33
2022-10-30T01:21:43.160Z,958.29
2022-10-30T01:22:43.154Z,958.24
2022-10-30T01:23:43.143Z,958.23
2022-10-30T01:24:43.136Z,958.24
2022-10-30T01:25:43.127Z,958.21
2022-10-30T01:26:43.120Z,958.22
2022-10-30T01:27:43.108Z,958.17
2022-10-30T01:28:43.129Z,958.25
2022-10-30T01:29:43.116Z,958.21
2022-10-30T01:30:43.113Z,958.22
2022-10-30T01:31:43.074Z,958.22
2022-10-30T01:32:43.068Z,958.2
2022-10-30T01:33:43.070Z,958.22
2022-10-30T01:35:43.041Z,958.25
2022-10-30T01:36:43.035Z,958.25
2022-10-30T01:37:43.023Z,958.25
2022-10-30T01:38:43.018Z,958.23
2022-10-30T01:39:43.007Z,958.18
2022-10-30T01:40:42.998Z,958.21
2022-10-30T01:41:42.990Z,958.18
2022-10-30T01:42:42.982Z,958.23
2022-10-30T01:43:42.971Z,958.16
2022-10-30T01:44:42.990Z,958.15
2022-10-30T01:45:42.954Z,958.12
2022-10-30T01:46:42.947Z,958.14
2022-10-30T01:47:42.938Z,958.12
2022-10-30T01:48:42.930Z,958.09
2022-10-30T01:49:42.921Z,958.07
2022-10-30T01:50:42.915Z,958.08
2022-10-30T01:51:42.908Z,958.02
2022-10-30T01:52:42.897Z,958
2022-10-30T01:53:42.892Z,958.01
2022-10-30T01:54:42.880Z,958.03
2022-10-30T01:55:42.867Z,958.07
2022-10-30T01:56:42.862Z,958.07
2022-10-30T01:57:42.854Z,958.03
2022-10-30T01:58:42.844Z,958.06
2022-10-30T01:59:42.834Z,958.03
2022-10-30T02:00:42.852Z,958.06
2022-10-30T02:01:42.955Z,958.06
2022-10-30T02:02:42.893Z,958.12
2022-10-30T02:03:42.801Z,958.12
2022-10-30T02:04:42.793Z,958.12
2022-10-30T02:05:42.786Z,958.09
2022-10-30T02:06:42.773Z,958.06
2022-10-30T02:07:42.768Z,958.11
2022-10-30T02:08:42.756Z,958.09
2022-10-30T02:09:42.748Z,958.1
2022-10-30T02:10:42.738Z,958.12
2022-10-30T02:11:42.731Z,958.15
2022-10-30T02:12:42.720Z,958.2
2022-10-30T02:13:42.713Z,958.22
2022-10-30T02:14:42.706Z,958.19
2022-10-30T02:15:42.708Z,958.17
2022-10-30T02:16:42.711Z,958.12
2022-10-30T02:17:42.683Z,958.1
2022-10-30T02:18:42.679Z,958.05
2022-10-30T02:19:42.663Z,958.08
2022-10-30T02:20:42.654Z,958.04
2022-10-30T02:21:42.648Z,958.03
2022-10-30T02:22:42.732Z,957.99
2022-10-30T02:23:42.630Z,958.03
2022-10-30T02:24:42.620Z,958
2022-10-30T02:25:42.612Z,957.97
2022-10-30T02:26:42.601Z,957.98
2022-10-30T02:27:42.600Z,957.96
2022-10-30T02:28:42.591Z,957.97
2022-10-30T02:29:42.577Z,957.97
2022-10-30T02:30:42.572Z,957.98
2022-10-30T02:31:42.562Z,957.95
2022-10-30T02:32:42.575Z,957.98
2022-10-30T02:33:42.545Z,957.93
2022-10-30T02:34:42.533Z,957.97
2022-10-30T02:35:42.526Z,957.91
2022-10-30T02:36:42.517Z,957.86
2022-10-30T02:37:42.512Z,957.84
2022-10-30T02:38:42.502Z,957.79
2022-10-30T02:39:42.493Z,957.88
2022-10-30T02:40:42.482Z,957.89
2022-10-30T02:41:42.479Z,957.93
2022-10-30T02:42:42.468Z,958.01
2022-10-30T02:43:42.529Z,957.93
2022-10-30T02:44:42.450Z,957.88
2022-10-30T02:45:42.443Z,957.79
2022-10-30T02:46:42.435Z,957.69
2022-10-30T02:47:42.426Z,957.7
2022-10-30T02:48:42.440Z,957.76
2022-10-30T02:49:42.407Z,957.82
2022-10-30T02:50:42.399Z,957.77
2022-10-30T02:51:42.392Z,957.75
2022-10-30T02:52:42.381Z,957.75
2022-10-30T02:53:42.374Z,957.77
2022-10-30T02:54:42.365Z,957.79
2022-10-30T02:55:42.360Z,957.77
2022-10-30T02:56:42.347Z,957.7
2022-10-30T02:57:42.340Z,957.67
2022-10-30T02:58:42.333Z,957.66
2022-10-30T02:59:42.328Z,957.72
2022-10-30T03:00:42.317Z,957.66
2022-10-30T03:01:42.470Z,957.52
2022-10-30T03:02:42.393Z,957.42
2022-10-30T03:03:42.291Z,957.32
2022-10-30T03:04:42.310Z,957.29
2022-10-30T03:05:42.272Z,957.3
2022-10-30T03:06:42.265Z,957.31
2022-10-30T03:07:42.257Z,957.31
2022-10-30T03:08:42.253Z,957.26
2022-10-30T03:09:42.239Z,957.26
2022-10-30T03:10:42.234Z,957.32
2022-10-30T03:11:42.222Z,957.47
2022-10-30T03:12:42.218Z,957.57
2022-10-30T03:13:42.206Z,957.68
2022-10-30T03:14:42.198Z,957.75
2022-10-30T03:15:42.189Z,957.7
2022-10-30T03:16:42.182Z,957.66
2022-10-30T03:18:42.164Z,957.68
2022-10-30T03:19:42.160Z,957.71
2022-10-30T03:20:42.173Z,957.63
2022-10-30T03:21:42.140Z,957.67
2022-10-30T03:22:42.129Z,957.63
2022-10-30T03:23:42.122Z,957.63
2022-10-30T03:24:42.114Z,957.55
2022-10-30T03:25:42.105Z,957.56
2022-10-30T03:26:42.096Z,957.54
2022-10-30T03:27:42.089Z,957.53
2022-10-30T03:28:42.081Z,957.55
2022-10-30T03:29:42.070Z,957.54
2022-10-30T03:30:42.063Z,957.54
2022-10-30T03:31:42.056Z,957.54
2022-10-30T03:32:42.049Z,957.53
2022-10-30T03:49:36.217Z,957.71
2022-10-30T03:50:36.188Z,957.63
2022-10-30T03:51:36.168Z,957.62
2022-10-30T03:52:36.164Z,957.63
2022-10-30T03:53:36.150Z,957.64
2022-10-30T03:54:36.132Z,957.65
2022-10-30T03:55:36.122Z,957.65
2022-10-30T03:56:36.107Z,957.65
2022-10-30T03:57:36.099Z,957.64
2022-10-30T03:58:36.089Z,957.64
2022-10-30T03:59:36.077Z,957.64
2022-10-30T04:00:36.068Z,957.65
2022-10-30T04:01:36.228Z,957.63
2022-10-30T04:02:36.050Z,957.62
2022-10-30T04:03:36.037Z,957.65
2022-10-30T04:04:36.026Z,957.61
2022-10-30T04:05:36.041Z,957.62
2022-10-30T04:06:36.009Z,957.62
2022-10-30T04:07:35.998Z,957.58
2022-10-30T04:08:35.987Z,957.62
2022-10-30T04:09:35.982Z,957.56
2022-10-30T04:10:36.044Z,957.6
2022-10-30T04:11:35.963Z,957.62
2022-10-30T04:12:35.950Z,957.62
2022-10-30T04:13:35.943Z,957.6
2022-10-30T04:14:35.930Z,957.62
2022-10-30T04:15:35.923Z,957.61
2022-10-30T04:16:35.913Z,957.58
2022-10-30T04:17:35.907Z,957.57
2022-10-30T04:18:35.895Z,957.56
2022-10-30T04:19:35.887Z,957.58
2022-10-30T04:20:35.879Z,957.55
2022-10-30T04:21:35.895Z,957.56
2022-10-30T04:22:35.861Z,957.58
2022-10-30T04:23:35.852Z,957.55
2022-10-30T04:24:35.844Z,957.54
2022-10-30T04:25:35.838Z,957.6
2022-10-30T04:26:35.823Z,957.57
2022-10-30T04:27:35.820Z,957.53
2022-10-30T04:28:35.807Z,957.54
2022-10-30T04:29:35.798Z,957.56
2022-10-30T04:30:35.792Z,957.53
2022-10-30T04:31:35.781Z,957.51
2022-10-30T04:32:35.772Z,957.47
2022-10-30T04:33:35.763Z,957.53
2022-10-30T04:34:35.754Z,957.45
2022-10-30T04:35:35.751Z,957.47
2022-10-30T04:36:35.735Z,957.47
2022-10-30T04:37:35.754Z,957.44
2022-10-30T04:38:35.723Z,957.43
2022-10-30T04:39:35.714Z,957.42
2022-10-30T04:40:35.703Z,957.43
2022-10-30T04:41:35.694Z,957.39
2022-10-30T04:42:35.688Z,957.39
2022-10-30T04:43:35.682Z,957.45
2022-10-30T04:44:35.668Z,957.47
2022-10-30T04:45:35.661Z,957.44
2022-10-30T04:46:35.654Z,957.43
2022-10-30T04:47:35.648Z,957.43
2022-10-30T04:48:35.634Z,957.39
2022-10-30T04:49:35.629Z,957.38
2022-10-30T04:50:35.621Z,957.44
2022-10-30T04:51:35.608Z,957.43
2022-10-30T04:52:35.602Z,957.4
2022-10-30T04:53:35.614Z,957.45
2022-10-30T04:54:35.584Z,957.36
2022-10-30T04:55:35.575Z,957.36
2022-10-30T04:56:35.567Z,957.38
2022-10-30T04:57:35.560Z,957.36
2022-10-30T04:58:35.551Z,957.32
2022-10-30T04:59:35.540Z,957.36
2022-10-30T05:00:35.554Z,957.35
2022-10-30T05:01:35.637Z,957.33
2022-10-30T05:02:35.695Z,957.29
2022-10-30T05:03:35.511Z,957.34
2022-10-30T05:04:35.500Z,957.25
2022-10-30T05:05:35.489Z,957.28
2022-10-30T05:06:35.485Z,957.31
2022-10-30T05:07:35.475Z,957.28
2022-10-30T05:08:35.469Z,957.3
2022-10-30T05:09:35.483Z,957.28
2022-10-30T05:10:35.450Z,957.3
2022-10-30T05:11:35.458Z,957.33
2022-10-30T05:12:35.438Z,957.3
2022-10-30T05:13:35.427Z,957.32
2022-10-30T05:14:35.419Z,957.31
2022-10-30T05:15:35.408Z,957.28
2022-10-30T05:16:35.401Z,957.31
2022-10-30T05:17:35.396Z,957.33
2022-10-30T05:18:35.421Z,957.35
2022-10-30T05:19:35.376Z,957.34
2022-10-30T05:20:35.367Z,957.37
2022-10-30T05:21:35.357Z,957.33
2022-10-30T05:22:35.354Z,957.39
2022-10-30T05:23:35.344Z,957.4
2022-10-30T05:24:35.340Z,957.4
2022-10-30T05:25:35.352Z,957.38
2022-10-30T05:26:35.322Z,957.45
2022-10-30T05:27:35.314Z,957.39
2022-10-30T05:28:35.307Z,957.37
2022-10-30T05:29:35.295Z,957.42
2022-10-30T05:30:35.292Z,957.37
2022-10-30T05:31:35.281Z,957.4
2022-10-30T05:32:35.277Z,957.38
2022-10-30T05:33:35.265Z,957.4
2022-10-30T05:34:35.254Z,957.43
2022-10-30T05:35:35.262Z,957.39
2022-10-30T05:36:35.238Z,957.47
2022-10-30T05:37:35.233Z,957.39
2022-10-30T05:38:35.223Z,957.42
2022-10-30T05:39:35.218Z,957.38
2022-10-30T05:40:35.207Z,957.43
2022-10-30T05:41:35.228Z,957.4
2022-10-30T05:42:35.189Z,957.39
2022-10-30T05:43:35.186Z,957.42
2022-10-30T05:44:59.041Z,957.43
2022-10-30T05:45:35.168Z,957.43
2022-10-30T05:46:35.156Z,957.42
2022-10-30T05:47:35.157Z,957.43
2022-10-30T05:48:35.142Z,957.37
2022-10-30T05:49:35.134Z,957.35
2022-10-30T05:50:35.127Z,957.39
2022-10-30T05:51:36.552Z,957.41
2022-10-30T05:52:35.124Z,957.37
2022-10-30T05:53:35.104Z,957.43
2022-10-30T05:54:35.092Z,957.42
2022-10-30T05:55:35.086Z,957.42
2022-10-30T05:56:35.077Z,957.43
2022-10-30T05:57:35.095Z,957.41
2022-10-30T05:58:35.062Z,957.42
2022-10-30T05:59:35.054Z,957.43
2022-10-30T06:00:35.047Z,957.44
2022-10-30T06:01:35.172Z,957.42
2022-10-30T06:02:35.084Z,957.44
2022-10-30T06:03:35.024Z,957.47
2022-10-30T06:04:35.010Z,957.53
2022-10-30T06:05:35.004Z,957.55
2022-10-30T06:06:34.997Z,957.53
2022-10-30T06:07:34.992Z,957.58
2022-10-30T06:08:34.978Z,957.56
2022-10-30T06:09:34.973Z,957.58
2022-10-30T06:10:35.113Z,957.53
2022-10-30T06:11:34.955Z,957.54
2022-10-30T06:12:34.946Z,957.58
2022-10-30T06:13:34.962Z,957.55
2022-10-30T06:14:34.930Z,957.56
2022-10-30T06:15:34.924Z,957.56
2022-10-30T06:16:34.938Z,957.52
2022-10-30T06:17:34.907Z,957.58
2022-10-30T06:18:34.897Z,957.57
2022-10-30T06:19:34.891Z,957.61
2022-10-30T06:20:34.883Z,957.57
2022-10-30T06:21:34.874Z,957.57
2022-10-30T06:22:34.865Z,957.61
2022-10-30T06:23:34.856Z,957.54
2022-10-30T06:24:34.855Z,957.57
2022-10-30T06:25:39.568Z,957.58
2022-10-30T06:26:34.833Z,957.55
2022-10-30T06:27:34.824Z,957.61
2022-10-30T06:28:34.820Z,957.58
2022-10-30T06:29:34.839Z,957.57
2022-10-30T06:30:34.800Z,957.58
2022-10-30T06:31:34.791Z,957.57
2022-10-30T06:32:34.784Z,957.64
2022-10-30T06:33:34.785Z,957.67
2022-10-30T06:34:34.768Z,957.67
2022-10-30T06:35:34.758Z,957.66
2022-10-30T06:36:34.810Z,957.66
2022-10-30T06:37:34.744Z,957.65
2022-10-30T06:38:34.736Z,957.65
2022-10-30T06:39:34.727Z,957.64
2022-10-30T06:40:34.718Z,957.66
2022-10-30T06:41:34.713Z,957.66
2022-10-30T06:42:34.705Z,957.67
2022-10-30T06:43:34.696Z,957.67
2022-10-30T06:44:34.687Z,957.65
2022-10-30T06:45:34.703Z,957.72
2022-10-30T06:46:34.674Z,957.72
2022-10-30T06:47:34.664Z,957.71
2022-10-30T06:48:34.656Z,957.68
2022-10-30T06:49:34.647Z,957.68
2022-10-30T06:50:34.642Z,957.7
2022-10-30T06:51:34.630Z,957.73
2022-10-30T06:52:34.631Z,957.71
2022-10-30T06:53:34.615Z,957.7
2022-10-30T06:54:34.610Z,957.75
2022-10-30T06:55:34.598Z,957.72
2022-10-30T06:56:34.594Z,957.75
2022-10-30T06:57:34.587Z,957.72
2022-10-30T06:58:34.578Z,957.76
2022-10-30T06:59:34.567Z,957.72
2022-10-30T07:00:34.651Z,957.73
2022-10-30T07:01:34.627Z,957.77
2022-10-30T07:02:34.550Z,957.77
2022-10-30T07:03:34.537Z,957.79
2022-10-30T07:04:34.532Z,957.79
2022-10-30T07:05:34.525Z,957.77
2022-10-30T07:06:34.516Z,957.79
2022-10-30T07:07:34.508Z,957.79
2022-10-30T07:08:34.500Z,957.79
2022-10-30T07:09:34.492Z,957.8
2022-10-30T07:10:34.639Z,957.84
2022-10-30T07:11:34.477Z,957.88
2022-10-30T07:12:34.474Z,957.91
2022-10-30T07:13:34.462Z,957.89
2022-10-30T07:14:34.455Z,957.92
2022-10-30T07:15:34.489Z,957.94
2022-10-30T07:16:34.439Z,957.95
2022-10-30T07:17:34.457Z,957.91
2022-10-30T07:18:34.425Z,957.93
2022-10-30T07:19:34.420Z,957.92
2022-10-30T07:20:34.413Z,957.93
2022-10-30T07:21:34.405Z,957.92
2022-10-30T07:22:34.401Z,957.91
2022-10-30T07:23:34.389Z,957.94
2022-10-30T07:24:34.382Z,957.91
2022-10-30T07:25:34.375Z,957.86
2022-10-30T07:26:34.365Z,957.89
2022-10-30T07:27:34.361Z,957.9
2022-10-30T07:28:34.355Z,957.89
2022-10-30T07:29:34.347Z,957.86
2022-10-30T07:30:34.337Z,957.86
2022-10-30T07:31:49.637Z,957.85
2022-10-30T07:32:34.326Z,957.87
2022-10-30T07:33:34.344Z,957.86
2022-10-30T07:34:34.310Z,957.87
2022-10-30T07:35:34.304Z,957.88
2022-10-30T07:36:34.297Z,957.88
2022-10-30T07:37:34.292Z,957.88
2022-10-30T07:38:34.287Z,957.85
2022-10-30T07:39:34.275Z,957.88
2022-10-30T07:40:34.268Z,957.91
2022-10-30T07:41:34.260Z,957.86
2022-10-30T07:42:34.251Z,957.89
2022-10-30T07:43:34.248Z,957.83
2022-10-30T07:44:34.241Z,957.87
2022-10-30T07:45:34.236Z,957.86
2022-10-30T07:46:34.223Z,957.87
2022-10-30T07:47:34.218Z,957.86
2022-10-30T07:48:34.212Z,957.84
2022-10-30T07:49:34.228Z,957.89
2022-10-30T07:50:34.195Z,957.85
2022-10-30T07:51:34.191Z,957.88
2022-10-30T07:52:34.198Z,957.91
2022-10-30T07:53:34.179Z,957.89
2022-10-30T07:54:34.166Z,957.94
2022-10-30T07:55:34.162Z,957.97
2022-10-30T07:56:34.159Z,958.01
2022-10-30T07:57:34.145Z,957.97
2022-10-30T07:58:34.140Z,958
2022-10-30T07:59:34.132Z,958.01
2022-10-30T08:00:34.125Z,958.02
2022-10-30T08:01:34.291Z,958.01
2022-10-30T08:02:34.170Z,958.06
2022-10-30T08:03:34.107Z,958.07
2022-10-30T08:04:34.097Z,958.08
2022-10-30T08:05:34.118Z,958.06
2022-10-30T08:06:34.085Z,958.08
2022-10-30T08:07:34.077Z,958.11
2022-10-30T08:08:36.689Z,958.1
2022-10-30T08:09:34.071Z,958.07
2022-10-30T08:10:34.058Z,958.11
2022-10-30T08:11:34.051Z,958.12
2022-10-30T08:12:34.050Z,958.11
2022-10-30T08:13:34.036Z,958.11
2022-10-30T08:14:34.034Z,958.13
2022-10-30T08:15:34.023Z,958.13
2022-10-30T08:16:34.020Z,958.16
2022-10-30T08:17:34.010Z,958.11
2022-10-30T08:18:34.005Z,958.11
2022-10-30T08:19:33.996Z,958.08
2022-10-30T08:20:33.993Z,958.1
2022-10-30T08:21:34.007Z,958.12
2022-10-30T08:22:33.979Z,958.14
2022-10-30T08:23:33.970Z,958.13
2022-10-30T08:24:33.966Z,958.13
2022-10-30T08:25:33.957Z,958.17
2022-10-30T08:26:33.957Z,958.14
2022-10-30T08:27:33.945Z,958.2
2022-10-30T08:28:33.939Z,958.12
2022-10-30T08:29:33.934Z,958.12
2022-10-30T08:30:33.934Z,958.14
2022-10-30T08:31:33.922Z,958.14
2022-10-30T08:32:33.915Z,958.07
2022-10-30T08:33:33.913Z,958.04
2022-10-30T08:34:33.905Z,958.11
2022-10-30T08:35:33.895Z,958.08
2022-10-30T08:36:33.894Z,958.1
2022-10-30T08:37:33.906Z,958.12
2022-10-30T08:38:33.881Z,958.09
2022-10-30T08:39:33.872Z,958.1
2022-10-30T08:40:33.870Z,958.13
2022-10-30T08:41:33.861Z,958.08
2022-10-30T08:42:33.856Z,958.11
2022-10-30T08:43:33.849Z,958.1
2022-10-30T08:44:33.846Z,958.1
2022-10-30T08:45:33.837Z,958.11
2022-10-30T08:46:33.838Z,958.14
2022-10-30T08:47:33.830Z,958.1
2022-10-30T08:48:33.824Z,958.15
2022-10-30T08:49:33.818Z,958.11
2022-10-30T08:50:33.813Z,958.08
2022-10-30T08:51:33.808Z,958.12
2022-10-30T08:52:33.806Z,958.09
2022-10-30T08:53:33.823Z,958.1
2022-10-30T08:54:33.791Z,958.11
2022-10-30T08:55:33.785Z,958.08
2022-10-30T08:56:33.779Z,958.1
2022-10-30T08:57:33.776Z,958.13
2022-10-30T08:58:33.772Z,958.11
2022-10-30T08:59:33.765Z,958.1
2022-10-30T09:00:33.758Z,958.13
2022-10-30T09:01:33.853Z,958.11
2022-10-30T09:02:33.841Z,958.09
2022-10-30T09:03:33.747Z,958.12
2022-10-30T09:04:33.740Z,958.11
2022-10-30T09:05:33.741Z,958.11
2022-10-30T09:06:33.728Z,958.11
2022-10-30T09:07:33.727Z,958.09
2022-10-30T09:08:33.719Z,958.11
2022-10-30T09:09:33.740Z,958.1
2022-10-30T09:10:33.709Z,958.07
2022-10-30T09:11:33.709Z,958.07
2022-10-30T09:12:33.699Z,958.08
2022-10-30T09:13:33.696Z,958.12
2022-10-30T09:14:33.688Z,958.14
2022-10-30T09:15:33.686Z,958.07
2022-10-30T09:16:33.682Z,958.1
2022-10-30T09:17:33.677Z,958.07
2022-10-30T09:18:33.669Z,958.03
2022-10-30T09:19:33.669Z,958.07
2022-10-30T09:20:33.672Z,958.06
2022-10-30T09:21:33.655Z,958.07
2022-10-30T09:22:33.652Z,958.05
2022-10-30T09:23:33.647Z,958.06
2022-10-30T09:24:33.641Z,958.05
2022-10-30T09:25:33.662Z,958.06
2022-10-30T09:26:33.632Z,958.07
2022-10-30T09:27:33.626Z,958.06
2022-10-30T09:28:33.620Z,958.11
2022-10-30T09:29:33.615Z,958.1
2022-10-30T09:30:33.615Z,958.06
2022-10-30T09:31:33.609Z,958.13
2022-10-30T09:32:33.599Z,958.08
2022-10-30T09:33:33.599Z,958.16
2022-10-30T09:34:33.591Z,958.14
2022-10-30T09:35:33.588Z,958.19
2022-10-30T09:36:33.582Z,958.19
2022-10-30T09:37:33.575Z,958.2
2022-10-30T09:38:33.570Z,958.18
2022-10-30T09:39:33.566Z,958.21
2022-10-30T09:40:33.558Z,958.21
2022-10-30T09:41:33.582Z,958.2
2022-10-30T09:42:33.549Z,958.2
2022-10-30T09:43:33.545Z,958.25
2022-10-30T09:44:33.538Z,958.25
2022-10-30T09:45:33.536Z,958.26
2022-10-30T09:46:33.532Z,958.25
2022-10-30T09:47:33.525Z,958.24
2022-10-30T09:48:33.520Z,958.25
2022-10-30T09:49:33.514Z,958.25
2022-10-30T09:50:35.688Z,958.26
2022-10-30T09:51:33.503Z,958.26
2022-10-30T09:52:33.498Z,958.26
2022-10-30T09:53:33.493Z,958.26
2022-10-30T09:54:33.487Z,958.28
2022-10-30T09:55:33.482Z,958.27
2022-10-30T09:56:33.478Z,958.3
2022-10-30T09:57:33.496Z,958.26
2022-10-30T09:58:33.470Z,958.26
2022-10-30T09:59:33.464Z,958.25
2022-10-30T10:00:33.457Z,958.29
2022-10-30T10:01:33.599Z,958.29
2022-10-30T10:02:33.625Z,958.29
2022-10-30T10:03:33.441Z,958.29
2022-10-30T10:04:33.437Z,958.27
2022-10-30T10:05:33.431Z,958.27
2022-10-30T10:06:33.429Z,958.25
2022-10-30T10:07:33.423Z,958.26
2022-10-30T10:08:33.423Z,958.26
2022-10-30T10:09:33.445Z,958.31
2022-10-30T10:10:33.407Z,958.29
2022-10-30T10:11:33.400Z,958.29
2022-10-30T10:12:33.397Z,958.32
2022-10-30T10:13:33.413Z,958.35
2022-10-30T10:14:33.385Z,958.33
2022-10-30T10:15:33.379Z,958.27
2022-10-30T10:16:33.379Z,958.27
2022-10-30T10:17:33.370Z,958.31
2022-10-30T10:19:33.357Z,958.28
2022-10-30T10:20:33.355Z,958.24
2022-10-30T10:21:33.350Z,958.28
2022-10-30T10:22:33.347Z,958.26
2022-10-30T10:23:33.342Z,958.22
2022-10-30T10:24:33.336Z,958.22
2022-10-30T10:25:33.332Z,958.2
2022-10-30T10:26:33.328Z,958.22
2022-10-30T10:27:33.322Z,958.21
2022-10-30T10:28:36.555Z,958.23
2022-10-30T10:29:33.343Z,958.22
2022-10-30T10:30:33.310Z,958.25
2022-10-30T10:31:33.306Z,958.19
2022-10-30T10:32:33.302Z,958.2
2022-10-30T10:33:33.297Z,958.18
2022-10-30T10:34:33.297Z,958.18
2022-10-30T10:35:33.289Z,958.17
2022-10-30T10:36:33.290Z,958.21
2022-10-30T10:37:33.282Z,958.2
2022-10-30T10:38:33.279Z,958.21
2022-10-30T10:39:33.276Z,958.19
2022-10-30T10:40:33.269Z,958.15
2022-10-30T10:41:33.266Z,958.18
2022-10-30T10:42:33.262Z,958.19
2022-10-30T10:43:33.262Z,958.2
2022-10-30T10:44:33.255Z,958.17
2022-10-30T10:45:33.277Z,958.2
2022-10-30T10:46:33.256Z,958.19
2022-10-30T10:47:33.245Z,958.17
2022-10-30T10:48:33.241Z,958.15
2022-10-30T10:49:34.497Z,958.15
2022-10-30T10:50:33.235Z,958.12
2022-10-30T10:51:33.231Z,958.14
2022-10-30T10:52:33.228Z,958.11
2022-10-30T10:53:33.224Z,958.12
2022-10-30T10:54:33.225Z,958.13
2022-10-30T10:55:33.218Z,958.11
2022-10-30T10:56:33.212Z,958.12
2022-10-30T10:57:33.213Z,958.09
2022-10-30T10:58:33.207Z,958.09
2022-10-30T10:59:33.215Z,958.09
2022-10-30T11:00:33.222Z,958.06
2022-10-30T11:01:33.431Z,958.09
2022-10-30T11:02:33.306Z,958.06
2022-10-30T11:03:33.195Z,958.03
2022-10-30T11:04:33.216Z,958.07
2022-10-30T11:05:33.196Z,958.02
2022-10-30T11:06:33.192Z,958.06
2022-10-30T11:07:33.190Z,958
2022-10-30T11:08:33.178Z,958.01
2022-10-30T11:09:33.180Z,958.03
2022-10-30T11:10:33.172Z,958.02
2022-10-30T11:11:33.170Z,958.02
2022-10-30T11:12:33.952Z,958.03
2022-10-30T11:13:33.164Z,958.01
2022-10-30T11:14:33.161Z,958
2022-10-30T11:15:33.158Z,958.07
2022-10-30T11:16:33.155Z,958.07
2022-10-30T11:17:33.177Z,958.01
2022-10-30T11:18:33.149Z,958.03
2022-10-30T11:19:33.148Z,958.06
2022-10-30T11:20:33.144Z,957.99
2022-10-30T11:21:33.145Z,957.99
2022-10-30T11:22:33.146Z,957.97
2022-10-30T11:23:33.139Z,958.01
2022-10-30T11:24:33.134Z,957.97
2022-10-30T11:25:33.132Z,957.94
2022-10-30T11:26:33.128Z,957.95
2022-10-30T11:27:33.129Z,957.96
2022-10-30T11:28:33.124Z,957.94
2022-10-30T11:29:33.127Z,957.9
2022-10-30T11:30:33.139Z,957.93
2022-10-30T11:31:33.933Z,957.91
2022-10-30T11:32:34.025Z,957.87
2022-10-30T11:33:33.954Z,957.94
2022-10-30T11:34:33.927Z,957.91
2022-10-30T11:35:33.926Z,957.95
2022-10-30T11:36:33.925Z,957.93
2022-10-30T11:37:33.918Z,957.92
2022-10-30T11:38:33.917Z,957.93
2022-10-30T11:39:33.915Z,957.91
2022-10-30T11:40:33.914Z,957.89
2022-10-30T11:41:33.908Z,957.9
2022-10-30T11:42:33.907Z,957.86
2022-10-30T11:43:33.904Z,957.88
2022-10-30T11:44:33.905Z,957.87
2022-10-30T11:45:33.901Z,957.89
2022-10-30T11:46:33.897Z,957.85
2022-10-30T11:48:33.905Z,957.84
2022-10-30T11:49:34.771Z,957.81
2022-10-30T11:50:33.899Z,957.82
2022-10-30T11:51:33.907Z,957.82
2022-10-30T11:52:33.885Z,957.79
2022-10-30T11:53:33.884Z,957.77
2022-10-30T11:54:33.879Z,957.82
2022-10-30T11:55:33.876Z,957.8
2022-10-30T11:56:33.877Z,957.77
2022-10-30T11:57:33.874Z,957.76
2022-10-30T11:58:33.871Z,957.82
2022-10-30T11:59:33.869Z,957.81
2022-10-30T12:00:33.868Z,957.82
2022-10-30T12:01:33.894Z,957.8
2022-10-30T12:02:33.956Z,957.8
2022-10-30T12:03:33.860Z,957.82
2022-10-30T12:04:33.859Z,957.8
2022-10-30T12:05:33.878Z,957.8
2022-10-30T12:06:33.852Z,957.79
2022-10-30T12:07:33.848Z,957.75
2022-10-30T12:08:33.850Z,957.77
2022-10-30T12:09:33.844Z,957.74
2022-10-30T12:10:33.845Z,957.77
2022-10-30T12:11:33.840Z,957.68
2022-10-30T12:12:33.840Z,957.7
2022-10-30T12:13:33.840Z,957.69
2022-10-30T12:14:33.834Z,957.68
2022-10-30T12:15:33.980Z,957.71
2022-10-30T12:16:33.828Z,957.65
2022-10-30T12:17:33.829Z,957.72
2022-10-30T12:18:33.832Z,957.71
2022-10-30T12:19:33.822Z,957.65
2022-10-30T12:20:33.820Z,957.65
2022-10-30T12:21:33.842Z,957.63
2022-10-30T12:22:33.816Z,957.66
2022-10-30T12:23:33.813Z,957.71
2022-10-30T12:24:33.811Z,957.66
2022-10-30T12:25:33.808Z,957.67
2022-10-30T12:26:33.805Z,957.67
2022-10-30T12:27:33.803Z,957.67
2022-10-30T12:28:33.802Z,957.65
2022-10-30T12:29:55.143Z,957.64
2022-10-30T12:30:33.795Z,957.65
2022-10-30T12:31:33.796Z,957.64
2022-10-30T12:32:38.552Z,957.63
2022-10-30T12:33:33.792Z,957.62
2022-10-30T12:34:33.785Z,957.65
2022-10-30T12:35:33.788Z,957.65
2022-10-30T12:36:33.781Z,957.64
2022-10-30T12:37:33.806Z,957.65
2022-10-30T12:38:33.777Z,957.6
2022-10-30T12:39:33.774Z,957.58
2022-10-30T12:40:33.771Z,957.59
2022-10-30T12:41:33.771Z,957.58
2022-10-30T12:42:33.767Z,957.55
2022-10-30T12:43:33.767Z,957.57
2022-10-30T12:44:33.790Z,957.55
2022-10-30T12:45:33.766Z,957.55
2022-10-30T12:46:33.756Z,957.55
2022-10-30T12:47:33.753Z,957.55
2022-10-30T12:48:33.752Z,957.54
2022-10-30T12:49:33.748Z,957.52
2022-10-30T12:50:33.744Z,957.48